sensor_id;sensor_type;location;lat;lon;timestamp;temperature;humidity
34201;DHT22;20469;55.638;37.670;2023-08-08T00:01:05;22.40;99.90
34201;DHT22;20469;55.638;37.670;2023-08-08T00:03:33;22.40;99.90
34201;DHT22;20469;55.638;37.670;2023-08-08T00:06:01;22.30;99.90
34201;DHT22;20469;55.638;37.670;2023-08-08T00:08:28;22.30;99.90
34201;DHT22;20469;55.638;37.670;2023-08-08T00:10:56;22.30;99.90
34201;DHT22;20469;55.638;37.670;2023-08-08T00:13:23;22.30;99.90
34201;DHT22;20469;55.638;37.670;2023-08-08T00:15:50;22.20;99.90
34201;DHT22;20469;55.638;37.670;2023-08-08T00:18:17;22.30;99.90
34201;DHT22;20469;55.638;37.670;2023-08-08T00:20:45;22.20;99.90
34201;DHT22;20469;55.638;37.670;2023-08-08T00:23:12;22.20;99.90
34201;DHT22;20469;55.638;37.670;2023-08-08T00:25:40;22.20;99.90
34201;DHT22;20469;55.638;37.670;2023-08-08T00:28:07;22.20;99.90
34201;DHT22;20469;55.638;37.670;2023-08-08T00:30:34;22.10;99.90
34201;DHT22;20469;55.638;37.670;2023-08-08T00:33:01;22.10;99.90
34201;DHT22;20469;55.638;37.670;2023-08-08T00:35:29;22.10;99.90
34201;DHT22;20469;55.638;37.670;2023-08-08T00:37:56;22.10;99.90
34201;DHT22;20469;55.638;37.670;2023-08-08T00:40:23;22.10;99.90
34201;DHT22;20469;55.638;37.670;2023-08-08T00:42:50;22.00;99.90
34201;DHT22;20469;55.638;37.670;2023-08-08T00:45:18;22.10;99.90
34201;DHT22;20469;55.638;37.670;2023-08-08T00:47:45;22.00;99.90
34201;DHT22;20469;55.638;37.670;2023-08-08T00:50:13;21.90;99.90
34201;DHT22;20469;55.638;37.670;2023-08-08T00:52:41;21.90;99.90
34201;DHT22;20469;55.638;37.670;2023-08-08T00:55:09;21.90;99.90
34201;DHT22;20469;55.638;37.670;2023-08-08T00:57:37;21.90;99.90
34201;DHT22;20469;55.638;37.670;2023-08-08T01:00:06;21.90;99.90
34201;DHT22;20469;55.638;37.670;2023-08-08T01:02:34;21.80;99.90
34201;DHT22;20469;55.638;37.670;2023-08-08T01:05:02;21.70;99.90
34201;DHT22;20469;55.638;37.670;2023-08-08T01:07:38;21.70;99.90
34201;DHT22;20469;55.638;37.670;2023-08-08T01:10:09;21.60;99.90
34201;DHT22;20469;55.638;37.670;2023-08-08T01:12:50;21.50;99.90
34201;DHT22;20469;55.638;37.670;2023-08-08T01:15:19;21.60;99.90
34201;DHT22;20469;55.638;37.670;2023-08-08T01:17:46;21.50;99.90
34201;DHT22;20469;55.638;37.670;2023-08-08T01:20:15;21.40;99.90
34201;DHT22;20469;55.638;37.670;2023-08-08T01:25:39;21.50;99.90
34201;DHT22;20469;55.638;37.670;2023-08-08T01:28:07;21.50;99.90
34201;DHT22;20469;55.638;37.670;2023-08-08T01:30:35;21.30;99.90
34201;DHT22;20469;55.638;37.670;2023-08-08T01:33:03;21.30;99.90
34201;DHT22;20469;55.638;37.670;2023-08-08T01:35:34;21.40;99.90
34201;DHT22;20469;55.638;37.670;2023-08-08T01:38:16;21.40;99.90
34201;DHT22;20469;55.638;37.670;2023-08-08T01:40:45;21.40;99.90
34201;DHT22;20469;55.638;37.670;2023-08-08T01:43:15;21.40;99.90
34201;DHT22;20469;55.638;37.670;2023-08-08T01:45:43;21.40;99.90
34201;DHT22;20469;55.638;37.670;2023-08-08T01:48:11;21.40;99.90
34201;DHT22;20469;55.638;37.670;2023-08-08T01:50:39;21.40;99.90
34201;DHT22;20469;55.638;37.670;2023-08-08T01:53:06;21.30;99.90
34201;DHT22;20469;55.638;37.670;2023-08-08T01:55:33;21.30;99.90
34201;DHT22;20469;55.638;37.670;2023-08-08T01:58:00;21.30;99.90
34201;DHT22;20469;55.638;37.670;2023-08-08T02:00:27;21.30;99.90
34201;DHT22;20469;55.638;37.670;2023-08-08T02:02:55;21.30;99.90
34201;DHT22;20469;55.638;37.670;2023-08-08T02:05:23;21.30;99.90
34201;DHT22;20469;55.638;37.670;2023-08-08T02:07:50;21.20;99.90
34201;DHT22;20469;55.638;37.670;2023-08-08T02:10:17;21.20;99.90
34201;DHT22;20469;55.638;37.670;2023-08-08T02:12:46;21.20;99.90
34201;DHT22;20469;55.638;37.670;2023-08-08T02:15:13;21.20;99.90
34201;DHT22;20469;55.638;37.670;2023-08-08T02:17:40;21.30;99.90
34201;DHT22;20469;55.638;37.670;2023-08-08T02:20:08;21.20;99.90
34201;DHT22;20469;55.638;37.670;2023-08-08T02:22:35;21.20;99.90
34201;DHT22;20469;55.638;37.670;2023-08-08T02:25:03;21.10;99.90
34201;DHT22;20469;55.638;37.670;2023-08-08T02:27:31;21.20;99.90
34201;DHT22;20469;55.638;37.670;2023-08-08T02:29:58;21.20;99.90
34201;DHT22;20469;55.638;37.670;2023-08-08T02:32:25;21.00;99.90
34201;DHT22;20469;55.638;37.670;2023-08-08T02:34:53;21.10;99.90
34201;DHT22;20469;55.638;37.670;2023-08-08T02:37:20;21.00;99.90
34201;DHT22;20469;55.638;37.670;2023-08-08T02:39:47;21.00;99.90
34201;DHT22;20469;55.638;37.670;2023-08-08T02:42:14;21.00;99.90
34201;DHT22;20469;55.638;37.670;2023-08-08T02:44:41;21.00;99.90
34201;DHT22;20469;55.638;37.670;2023-08-08T02:47:09;21.10;99.90
34201;DHT22;20469;55.638;37.670;2023-08-08T02:49:36;21.20;99.90
34201;DHT22;20469;55.638;37.670;2023-08-08T02:52:03;21.20;99.90
34201;DHT22;20469;55.638;37.670;2023-08-08T02:54:31;21.10;99.90
34201;DHT22;20469;55.638;37.670;2023-08-08T02:56:58;21.30;99.90
34201;DHT22;20469;55.638;37.670;2023-08-08T02:59:25;21.20;99.90
34201;DHT22;20469;55.638;37.670;2023-08-08T03:01:52;21.30;99.90
34201;DHT22;20469;55.638;37.670;2023-08-08T03:04:20;21.30;99.90
34201;DHT22;20469;55.638;37.670;2023-08-08T03:06:47;21.30;99.90
34201;DHT22;20469;55.638;37.670;2023-08-08T03:09:14;21.30;99.90
34201;DHT22;20469;55.638;37.670;2023-08-08T03:11:41;21.30;99.90
34201;DHT22;20469;55.638;37.670;2023-08-08T03:14:09;21.30;99.90
34201;DHT22;20469;55.638;37.670;2023-08-08T03:16:36;21.30;99.90
34201;DHT22;20469;55.638;37.670;2023-08-08T03:19:03;21.30;99.90
34201;DHT22;20469;55.638;37.670;2023-08-08T03:21:31;21.40;99.90
34201;DHT22;20469;55.638;37.670;2023-08-08T03:23:58;21.30;99.90
34201;DHT22;20469;55.638;37.670;2023-08-08T03:26:26;21.30;99.90
34201;DHT22;20469;55.638;37.670;2023-08-08T03:28:53;21.40;99.90
34201;DHT22;20469;55.638;37.670;2023-08-08T03:31:20;21.40;99.90
34201;DHT22;20469;55.638;37.670;2023-08-08T03:33:48;21.30;99.90
34201;DHT22;20469;55.638;37.670;2023-08-08T03:36:15;21.50;99.90
34201;DHT22;20469;55.638;37.670;2023-08-08T03:38:43;21.30;99.90
34201;DHT22;20469;55.638;37.670;2023-08-08T03:41:13;21.40;99.90
34201;DHT22;20469;55.638;37.670;2023-08-08T03:43:41;21.40;99.90
34201;DHT22;20469;55.638;37.670;2023-08-08T03:46:08;21.40;99.90
34201;DHT22;20469;55.638;37.670;2023-08-08T03:48:35;21.20;99.90
34201;DHT22;20469;55.638;37.670;2023-08-08T03:51:03;21.30;99.90
34201;DHT22;20469;55.638;37.670;2023-08-08T03:53:30;21.20;99.90
34201;DHT22;20469;55.638;37.670;2023-08-08T03:55:57;21.20;99.90
34201;DHT22;20469;55.638;37.670;2023-08-08T03:58:24;21.30;99.90
34201;DHT22;20469;55.638;37.670;2023-08-08T04:00:51;21.30;99.90
34201;DHT22;20469;55.638;37.670;2023-08-08T04:03:19;21.20;99.90
34201;DHT22;20469;55.638;37.670;2023-08-08T04:05:47;21.40;99.90
34201;DHT22;20469;55.638;37.670;2023-08-08T04:08:15;21.50;99.90
34201;DHT22;20469;55.638;37.670;2023-08-08T04:10:43;21.40;99.90
34201;DHT22;20469;55.638;37.670;2023-08-08T04:13:11;21.30;99.90
34201;DHT22;20469;55.638;37.670;2023-08-08T04:15:39;21.40;99.90
34201;DHT22;20469;55.638;37.670;2023-08-08T04:18:06;21.40;99.90
34201;DHT22;20469;55.638;37.670;2023-08-08T04:20:34;21.30;99.90
34201;DHT22;20469;55.638;37.670;2023-08-08T04:23:01;21.20;99.90
34201;DHT22;20469;55.638;37.670;2023-08-08T04:25:29;21.20;99.90
34201;DHT22;20469;55.638;37.670;2023-08-08T04:27:56;21.20;99.90
34201;DHT22;20469;55.638;37.670;2023-08-08T04:30:24;21.10;99.90
34201;DHT22;20469;55.638;37.670;2023-08-08T04:32:51;21.00;99.90
34201;DHT22;20469;55.638;37.670;2023-08-08T04:35:18;21.10;99.90
34201;DHT22;20469;55.638;37.670;2023-08-08T04:37:45;21.00;99.90
34201;DHT22;20469;55.638;37.670;2023-08-08T04:40:13;20.90;99.90
34201;DHT22;20469;55.638;37.670;2023-08-08T04:42:41;20.90;99.90
34201;DHT22;20469;55.638;37.670;2023-08-08T04:45:09;20.90;99.90
34201;DHT22;20469;55.638;37.670;2023-08-08T04:47:36;20.90;99.90
34201;DHT22;20469;55.638;37.670;2023-08-08T04:50:03;20.90;99.90
34201;DHT22;20469;55.638;37.670;2023-08-08T04:52:51;20.90;99.90
34201;DHT22;20469;55.638;37.670;2023-08-08T04:55:18;20.80;99.90
34201;DHT22;20469;55.638;37.670;2023-08-08T04:57:46;20.90;99.90
34201;DHT22;20469;55.638;37.670;2023-08-08T05:00:14;21.10;99.90
34201;DHT22;20469;55.638;37.670;2023-08-08T05:02:41;21.00;99.90
34201;DHT22;20469;55.638;37.670;2023-08-08T05:05:09;21.10;99.90
34201;DHT22;20469;55.638;37.670;2023-08-08T05:07:36;21.10;99.90
34201;DHT22;20469;55.638;37.670;2023-08-08T05:10:05;20.90;99.90
34201;DHT22;20469;55.638;37.670;2023-08-08T05:12:53;21.10;99.90
34201;DHT22;20469;55.638;37.670;2023-08-08T05:15:20;21.30;99.90
34201;DHT22;20469;55.638;37.670;2023-08-08T05:17:47;21.40;99.90
34201;DHT22;20469;55.638;37.670;2023-08-08T05:20:15;21.50;99.90
34201;DHT22;20469;55.638;37.670;2023-08-08T05:22:43;21.40;99.90
34201;DHT22;20469;55.638;37.670;2023-08-08T05:25:10;21.60;99.90
34201;DHT22;20469;55.638;37.670;2023-08-08T05:27:37;21.70;99.90
34201;DHT22;20469;55.638;37.670;2023-08-08T05:30:06;21.70;99.90
34201;DHT22;20469;55.638;37.670;2023-08-08T05:32:52;21.70;99.90
34201;DHT22;20469;55.638;37.670;2023-08-08T05:35:20;21.70;99.90
34201;DHT22;20469;55.638;37.670;2023-08-08T05:37:47;21.60;99.90
34201;DHT22;20469;55.638;37.670;2023-08-08T05:40:15;21.90;99.90
34201;DHT22;20469;55.638;37.670;2023-08-08T05:42:42;21.70;99.90
34201;DHT22;20469;55.638;37.670;2023-08-08T05:45:09;21.70;99.90
34201;DHT22;20469;55.638;37.670;2023-08-08T05:47:37;21.80;99.90
34201;DHT22;20469;55.638;37.670;2023-08-08T05:50:05;22.10;99.90
34201;DHT22;20469;55.638;37.670;2023-08-08T05:52:32;22.20;99.90
34201;DHT22;20469;55.638;37.670;2023-08-08T05:55:00;22.70;99.90
34201;DHT22;20469;55.638;37.670;2023-08-08T05:57:29;22.90;99.90
34201;DHT22;20469;55.638;37.670;2023-08-08T05:59:57;23.10;99.90
34201;DHT22;20469;55.638;37.670;2023-08-08T06:02:26;22.90;99.90
34201;DHT22;20469;55.638;37.670;2023-08-08T06:04:53;23.20;99.90
34201;DHT22;20469;55.638;37.670;2023-08-08T06:07:21;23.30;99.90
34201;DHT22;20469;55.638;37.670;2023-08-08T06:09:48;23.00;99.90
34201;DHT22;20469;55.638;37.670;2023-08-08T06:12:15;22.70;99.90
34201;DHT22;20469;55.638;37.670;2023-08-08T06:14:43;22.90;99.90
34201;DHT22;20469;55.638;37.670;2023-08-08T06:17:11;22.70;99.90
34201;DHT22;20469;55.638;37.670;2023-08-08T06:19:38;22.70;99.90
34201;DHT22;20469;55.638;37.670;2023-08-08T06:22:06;22.60;99.90
34201;DHT22;20469;55.638;37.670;2023-08-08T06:24:33;22.70;99.90
34201;DHT22;20469;55.638;37.670;2023-08-08T06:27:00;22.70;99.90
34201;DHT22;20469;55.638;37.670;2023-08-08T06:29:28;22.50;99.90
34201;DHT22;20469;55.638;37.670;2023-08-08T06:31:55;22.70;99.90
34201;DHT22;20469;55.638;37.670;2023-08-08T06:34:23;22.90;99.90
34201;DHT22;20469;55.638;37.670;2023-08-08T06:36:50;22.90;99.90
34201;DHT22;20469;55.638;37.670;2023-08-08T06:39:18;23.00;99.90
34201;DHT22;20469;55.638;37.670;2023-08-08T06:41:48;22.80;99.90
34201;DHT22;20469;55.638;37.670;2023-08-08T06:44:15;23.00;99.90
34201;DHT22;20469;55.638;37.670;2023-08-08T06:46:43;23.80;99.90
34201;DHT22;20469;55.638;37.670;2023-08-08T06:49:10;23.70;99.90
34201;DHT22;20469;55.638;37.670;2023-08-08T06:51:38;23.60;99.90
34201;DHT22;20469;55.638;37.670;2023-08-08T06:54:05;24.00;99.90
34201;DHT22;20469;55.638;37.670;2023-08-08T06:56:33;24.10;99.90
34201;DHT22;20469;55.638;37.670;2023-08-08T06:59:00;24.20;99.90
34201;DHT22;20469;55.638;37.670;2023-08-08T07:01:27;23.80;99.90
34201;DHT22;20469;55.638;37.670;2023-08-08T07:03:55;23.80;99.90
34201;DHT22;20469;55.638;37.670;2023-08-08T07:06:22;23.70;99.90
34201;DHT22;20469;55.638;37.670;2023-08-08T07:08:50;23.70;99.90
34201;DHT22;20469;55.638;37.670;2023-08-08T07:11:17;23.50;99.90
34201;DHT22;20469;55.638;37.670;2023-08-08T07:13:45;23.60;99.90
34201;DHT22;20469;55.638;37.670;2023-08-08T07:16:13;23.50;99.90
34201;DHT22;20469;55.638;37.670;2023-08-08T07:18:40;23.80;99.90
34201;DHT22;20469;55.638;37.670;2023-08-08T07:21:08;23.70;99.90
34201;DHT22;20469;55.638;37.670;2023-08-08T07:23:35;23.30;99.90
34201;DHT22;20469;55.638;37.670;2023-08-08T07:26:02;23.30;99.90
34201;DHT22;20469;55.638;37.670;2023-08-08T07:28:30;23.10;99.90
34201;DHT22;20469;55.638;37.670;2023-08-08T07:30:57;23.60;99.90
34201;DHT22;20469;55.638;37.670;2023-08-08T07:33:27;23.80;99.90
34201;DHT22;20469;55.638;37.670;2023-08-08T07:35:55;24.40;99.90
34201;DHT22;20469;55.638;37.670;2023-08-08T07:38:22;25.70;99.90
34201;DHT22;20469;55.638;37.670;2023-08-08T07:40:50;24.80;99.90
34201;DHT22;20469;55.638;37.670;2023-08-08T07:43:17;23.90;99.90
34201;DHT22;20469;55.638;37.670;2023-08-08T07:45:46;24.00;99.90
34201;DHT22;20469;55.638;37.670;2023-08-08T07:48:13;24.20;99.90
34201;DHT22;20469;55.638;37.670;2023-08-08T07:50:41;24.00;99.90
34201;DHT22;20469;55.638;37.670;2023-08-08T07:53:09;24.00;99.90
34201;DHT22;20469;55.638;37.670;2023-08-08T07:55:36;23.90;99.90
34201;DHT22;20469;55.638;37.670;2023-08-08T07:58:04;24.20;99.90
34201;DHT22;20469;55.638;37.670;2023-08-08T08:00:31;24.50;99.90
34201;DHT22;20469;55.638;37.670;2023-08-08T08:02:59;24.30;99.90
34201;DHT22;20469;55.638;37.670;2023-08-08T08:05:26;23.90;99.90
34201;DHT22;20469;55.638;37.670;2023-08-08T08:07:54;23.80;99.90
34201;DHT22;20469;55.638;37.670;2023-08-08T08:10:21;23.70;99.90
34201;DHT22;20469;55.638;37.670;2023-08-08T08:12:50;23.80;99.90
34201;DHT22;20469;55.638;37.670;2023-08-08T08:15:25;23.90;99.90
34201;DHT22;20469;55.638;37.670;2023-08-08T08:17:52;23.90;99.90
34201;DHT22;20469;55.638;37.670;2023-08-08T08:20:20;23.90;99.90
34201;DHT22;20469;55.638;37.670;2023-08-08T08:22:48;24.20;99.90
34201;DHT22;20469;55.638;37.670;2023-08-08T08:25:15;25.20;99.90
34201;DHT22;20469;55.638;37.670;2023-08-08T08:27:43;25.50;99.90
34201;DHT22;20469;55.638;37.670;2023-08-08T08:30:11;25.80;99.90
34201;DHT22;20469;55.638;37.670;2023-08-08T08:32:41;25.20;99.90
34201;DHT22;20469;55.638;37.670;2023-08-08T08:35:09;25.40;99.90
34201;DHT22;20469;55.638;37.670;2023-08-08T08:37:39;24.70;99.90
34201;DHT22;20469;55.638;37.670;2023-08-08T08:40:07;25.00;99.90
34201;DHT22;20469;55.638;37.670;2023-08-08T08:42:35;25.90;99.90
34201;DHT22;20469;55.638;37.670;2023-08-08T08:45:04;26.10;99.90
34201;DHT22;20469;55.638;37.670;2023-08-08T08:47:34;25.70;94.20
34201;DHT22;20469;55.638;37.670;2023-08-08T08:50:03;26.00;96.60
34201;DHT22;20469;55.638;37.670;2023-08-08T08:52:32;26.00;93.00
34201;DHT22;20469;55.638;37.670;2023-08-08T08:55:02;26.20;99.80
34201;DHT22;20469;55.638;37.670;2023-08-08T08:57:31;26.50;99.90
34201;DHT22;20469;55.638;37.670;2023-08-08T09:00:01;27.30;90.50
34201;DHT22;20469;55.638;37.670;2023-08-08T09:02:33;28.60;23.70
34201;DHT22;20469;55.638;37.670;2023-08-08T09:05:03;28.40;9.60
34201;DHT22;20469;55.638;37.670;2023-08-08T09:07:32;27.70;13.20
34201;DHT22;20469;55.638;37.670;2023-08-08T09:10:01;27.00;37.30
34201;DHT22;20469;55.638;37.670;2023-08-08T09:12:33;28.50;10.80
34201;DHT22;20469;55.638;37.670;2023-08-08T09:15:02;27.40;12.30
34201;DHT22;20469;55.638;37.670;2023-08-08T09:17:31;29.20;12.30
34201;DHT22;20469;55.638;37.670;2023-08-08T09:20:02;28.80;5.50
34201;DHT22;20469;55.638;37.670;2023-08-08T09:22:31;29.80;1.00
34201;DHT22;20469;55.638;37.670;2023-08-08T09:25:02;28.90;1.00
34201;DHT22;20469;55.638;37.670;2023-08-08T09:27:30;30.10;1.00
34201;DHT22;20469;55.638;37.670;2023-08-08T09:29:59;30.00;1.00
34201;DHT22;20469;55.638;37.670;2023-08-08T09:32:31;30.40;1.00
34201;DHT22;20469;55.638;37.670;2023-08-08T09:34:59;29.60;1.00
34201;DHT22;20469;55.638;37.670;2023-08-08T09:37:28;28.20;1.00
34201;DHT22;20469;55.638;37.670;2023-08-08T09:39:57;28.00;1.00
34201;DHT22;20469;55.638;37.670;2023-08-08T09:42:29;27.80;1.00
34201;DHT22;20469;55.638;37.670;2023-08-08T09:44:59;26.70;3.20
34201;DHT22;20469;55.638;37.670;2023-08-08T09:47:27;26.80;7.90
34201;DHT22;20469;55.638;37.670;2023-08-08T09:50:01;27.20;8.40
34201;DHT22;20469;55.638;37.670;2023-08-08T09:52:35;28.20;3.50
34201;DHT22;20469;55.638;37.670;2023-08-08T09:55:06;28.70;1.00
34201;DHT22;20469;55.638;37.670;2023-08-08T09:57:35;28.30;1.00
34201;DHT22;20469;55.638;37.670;2023-08-08T10:00:06;27.80;1.00
34201;DHT22;20469;55.638;37.670;2023-08-08T10:02:39;27.00;1.00
34201;DHT22;20469;55.638;37.670;2023-08-08T10:05:09;27.60;8.60
34201;DHT22;20469;55.638;37.670;2023-08-08T10:07:37;28.70;1.00
34201;DHT22;20469;55.638;37.670;2023-08-08T10:10:06;27.40;1.00
34201;DHT22;20469;55.638;37.670;2023-08-08T10:12:33;27.70;1.80
34201;DHT22;20469;55.638;37.670;2023-08-08T10:15:01;26.90;9.40
34201;DHT22;20469;55.638;37.670;2023-08-08T10:17:38;26.80;14.00
34201;DHT22;20469;55.638;37.670;2023-08-08T10:20:08;26.80;15.10
34201;DHT22;20469;55.638;37.670;2023-08-08T10:22:43;26.50;18.00
34201;DHT22;20469;55.638;37.670;2023-08-08T10:25:19;26.40;21.20
34201;DHT22;20469;55.638;37.670;2023-08-08T10:27:49;26.70;27.50
34201;DHT22;20469;55.638;37.670;2023-08-08T10:30:16;26.80;22.50
34201;DHT22;20469;55.638;37.670;2023-08-08T10:32:45;27.00;24.60
34201;DHT22;20469;55.638;37.670;2023-08-08T10:35:15;27.10;22.60
34201;DHT22;20469;55.638;37.670;2023-08-08T10:37:53;27.70;17.30
34201;DHT22;20469;55.638;37.670;2023-08-08T10:40:21;27.10;10.90
34201;DHT22;20469;55.638;37.670;2023-08-08T10:42:48;26.70;20.20
34201;DHT22;20469;55.638;37.670;2023-08-08T10:45:16;26.50;24.00
34201;DHT22;20469;55.638;37.670;2023-08-08T10:47:44;26.30;30.50
34201;DHT22;20469;55.638;37.670;2023-08-08T10:50:16;26.00;36.20
34201;DHT22;20469;55.638;37.670;2023-08-08T10:52:52;25.50;48.70
34201;DHT22;20469;55.638;37.670;2023-08-08T10:58:04;25.60;72.70
34201;DHT22;20469;55.638;37.670;2023-08-08T11:00:36;25.50;70.70
34201;DHT22;20469;55.638;37.670;2023-08-08T11:03:09;25.50;71.70
34201;DHT22;20469;55.638;37.670;2023-08-08T11:05:37;25.60;79.10
34201;DHT22;20469;55.638;37.670;2023-08-08T11:08:06;25.70;86.20
34201;DHT22;20469;55.638;37.670;2023-08-08T11:10:40;25.70;88.50
34201;DHT22;20469;55.638;37.670;2023-08-08T11:13:08;25.50;85.40
34201;DHT22;20469;55.638;37.670;2023-08-08T11:15:36;25.30;92.30
34201;DHT22;20469;55.638;37.670;2023-08-08T11:18:06;25.30;99.90
34201;DHT22;20469;55.638;37.670;2023-08-08T11:20:36;25.50;99.90
34201;DHT22;20469;55.638;37.670;2023-08-08T11:23:03;25.50;99.90
34201;DHT22;20469;55.638;37.670;2023-08-08T11:25:33;25.50;99.90
34201;DHT22;20469;55.638;37.670;2023-08-08T11:28:00;25.00;99.90
34201;DHT22;20469;55.638;37.670;2023-08-08T11:30:30;24.90;99.90
34201;DHT22;20469;55.638;37.670;2023-08-08T11:32:57;24.90;99.90
34201;DHT22;20469;55.638;37.670;2023-08-08T11:35:29;25.00;99.90
34201;DHT22;20469;55.638;37.670;2023-08-08T11:37:57;25.00;99.90
34201;DHT22;20469;55.638;37.670;2023-08-08T11:40:27;24.90;99.90
34201;DHT22;20469;55.638;37.670;2023-08-08T11:42:55;24.90;99.90
34201;DHT22;20469;55.638;37.670;2023-08-08T11:45:23;24.80;99.90
34201;DHT22;20469;55.638;37.670;2023-08-08T11:47:55;24.70;99.90
34201;DHT22;20469;55.638;37.670;2023-08-08T11:50:24;24.90;99.90
34201;DHT22;20469;55.638;37.670;2023-08-08T11:52:53;25.20;99.90
34201;DHT22;20469;55.638;37.670;2023-08-08T11:55:27;25.60;99.90
34201;DHT22;20469;55.638;37.670;2023-08-08T11:57:55;25.90;99.90
34201;DHT22;20469;55.638;37.670;2023-08-08T12:00:29;26.40;99.90
34201;DHT22;20469;55.638;37.670;2023-08-08T12:03:00;27.20;99.90
34201;DHT22;20469;55.638;37.670;2023-08-08T12:05:28;27.40;91.70
34201;DHT22;20469;55.638;37.670;2023-08-08T12:07:58;26.90;80.40
34201;DHT22;20469;55.638;37.670;2023-08-08T12:10:26;26.90;79.60
34201;DHT22;20469;55.638;37.670;2023-08-08T12:12:55;27.20;73.00
34201;DHT22;20469;55.638;37.670;2023-08-08T12:15:35;27.10;58.30
34201;DHT22;20469;55.638;37.670;2023-08-08T12:18:03;26.70;63.20
34201;DHT22;20469;55.638;37.670;2023-08-08T12:20:31;26.60;73.00
34201;DHT22;20469;55.638;37.670;2023-08-08T12:22:59;27.30;62.70
34201;DHT22;20469;55.638;37.670;2023-08-08T12:25:26;29.60;29.00
34201;DHT22;20469;55.638;37.670;2023-08-08T12:27:54;31.60;1.00
34201;DHT22;20469;55.638;37.670;2023-08-08T12:30:22;32.50;1.00
34201;DHT22;20469;55.638;37.670;2023-08-08T12:32:49;32.70;1.00
34201;DHT22;20469;55.638;37.670;2023-08-08T12:35:17;32.90;1.00
34201;DHT22;20469;55.638;37.670;2023-08-08T12:37:44;34.00;1.00
34201;DHT22;20469;55.638;37.670;2023-08-08T12:40:12;32.50;1.00
34201;DHT22;20469;55.638;37.670;2023-08-08T12:42:40;32.10;1.00
34201;DHT22;20469;55.638;37.670;2023-08-08T12:45:08;32.40;1.00
34201;DHT22;20469;55.638;37.670;2023-08-08T12:47:37;29.60;1.00
34201;DHT22;20469;55.638;37.670;2023-08-08T12:50:05;28.90;1.00
34201;DHT22;20469;55.638;37.670;2023-08-08T12:52:33;31.30;1.00
34201;DHT22;20469;55.638;37.670;2023-08-08T12:55:00;30.80;1.00
34201;DHT22;20469;55.638;37.670;2023-08-08T12:57:28;32.40;1.00
34201;DHT22;20469;55.638;37.670;2023-08-08T12:59:55;31.00;1.00
34201;DHT22;20469;55.638;37.670;2023-08-08T13:02:23;31.90;1.00
34201;DHT22;20469;55.638;37.670;2023-08-08T13:04:50;31.40;1.00
34201;DHT22;20469;55.638;37.670;2023-08-08T13:07:17;33.00;1.00
34201;DHT22;20469;55.638;37.670;2023-08-08T13:09:45;33.10;1.00
34201;DHT22;20469;55.638;37.670;2023-08-08T13:12:12;33.30;1.00
34201;DHT22;20469;55.638;37.670;2023-08-08T13:14:39;32.40;1.00
34201;DHT22;20469;55.638;37.670;2023-08-08T13:17:07;33.40;1.00
34201;DHT22;20469;55.638;37.670;2023-08-08T13:19:34;32.50;1.00
34201;DHT22;20469;55.638;37.670;2023-08-08T13:22:01;31.50;1.00
34201;DHT22;20469;55.638;37.670;2023-08-08T13:24:30;30.00;1.00
34201;DHT22;20469;55.638;37.670;2023-08-08T13:26:57;29.00;1.00
34201;DHT22;20469;55.638;37.670;2023-08-08T13:29:24;28.20;1.00
34201;DHT22;20469;55.638;37.670;2023-08-08T13:31:51;29.20;1.00
34201;DHT22;20469;55.638;37.670;2023-08-08T13:34:19;31.80;1.00
34201;DHT22;20469;55.638;37.670;2023-08-08T13:36:46;31.30;1.00
34201;DHT22;20469;55.638;37.670;2023-08-08T13:39:14;31.00;1.00
34201;DHT22;20469;55.638;37.670;2023-08-08T13:41:41;31.20;1.00
34201;DHT22;20469;55.638;37.670;2023-08-08T13:44:08;30.40;1.00
34201;DHT22;20469;55.638;37.670;2023-08-08T13:46:36;28.70;1.00
34201;DHT22;20469;55.638;37.670;2023-08-08T13:49:03;28.20;1.00
34201;DHT22;20469;55.638;37.670;2023-08-08T13:51:31;28.40;1.00
34201;DHT22;20469;55.638;37.670;2023-08-08T13:53:58;28.60;1.00
34201;DHT22;20469;55.638;37.670;2023-08-08T13:56:25;28.50;1.00
34201;DHT22;20469;55.638;37.670;2023-08-08T13:58:52;28.90;1.00
34201;DHT22;20469;55.638;37.670;2023-08-08T14:01:20;28.80;1.00
34201;DHT22;20469;55.638;37.670;2023-08-08T14:03:47;29.90;1.00
34201;DHT22;20469;55.638;37.670;2023-08-08T14:06:15;30.80;1.00
34201;DHT22;20469;55.638;37.670;2023-08-08T14:08:43;30.50;1.00
34201;DHT22;20469;55.638;37.670;2023-08-08T14:11:10;30.60;1.00
34201;DHT22;20469;55.638;37.670;2023-08-08T14:13:37;31.60;1.00
34201;DHT22;20469;55.638;37.670;2023-08-08T14:16:06;29.30;1.00
34201;DHT22;20469;55.638;37.670;2023-08-08T14:18:34;28.50;1.00
34201;DHT22;20469;55.638;37.670;2023-08-08T14:21:01;27.90;1.00
34201;DHT22;20469;55.638;37.670;2023-08-08T14:23:31;27.60;1.00
34201;DHT22;20469;55.638;37.670;2023-08-08T14:25:59;27.50;1.00
34201;DHT22;20469;55.638;37.670;2023-08-08T14:28:26;27.80;1.90
34201;DHT22;20469;55.638;37.670;2023-08-08T14:30:55;27.80;1.00
34201;DHT22;20469;55.638;37.670;2023-08-08T14:33:22;28.10;1.00
34201;DHT22;20469;55.638;37.670;2023-08-08T14:35:50;28.00;3.70
34201;DHT22;20469;55.638;37.670;2023-08-08T14:38:17;30.00;1.00
34201;DHT22;20469;55.638;37.670;2023-08-08T14:40:44;30.00;1.00
34201;DHT22;20469;55.638;37.670;2023-08-08T14:43:11;29.40;1.00
34201;DHT22;20469;55.638;37.670;2023-08-08T14:45:39;28.40;1.00
34201;DHT22;20469;55.638;37.670;2023-08-08T14:48:06;28.20;1.00
34201;DHT22;20469;55.638;37.670;2023-08-08T14:50:34;27.60;1.00
34201;DHT22;20469;55.638;37.670;2023-08-08T14:53:02;27.50;8.90
34201;DHT22;20469;55.638;37.670;2023-08-08T14:55:29;27.50;15.50
34201;DHT22;20469;55.638;37.670;2023-08-08T14:57:57;27.50;17.30
34201;DHT22;20469;55.638;37.670;2023-08-08T15:00:24;27.40;19.40
34201;DHT22;20469;55.638;37.670;2023-08-08T15:02:52;27.30;17.00
34201;DHT22;20469;55.638;37.670;2023-08-08T15:05:19;27.40;21.60
34201;DHT22;20469;55.638;37.670;2023-08-08T15:07:46;27.30;22.90
34201;DHT22;20469;55.638;37.670;2023-08-08T15:10:14;27.20;25.10
34201;DHT22;20469;55.638;37.670;2023-08-08T15:12:41;27.20;26.70
34201;DHT22;20469;55.638;37.670;2023-08-08T15:15:09;27.20;31.00
34201;DHT22;20469;55.638;37.670;2023-08-08T15:17:36;26.80;45.00
34201;DHT22;20469;55.638;37.670;2023-08-08T15:20:04;26.50;56.70
34201;DHT22;20469;55.638;37.670;2023-08-08T15:22:32;26.40;77.10
34201;DHT22;20469;55.638;37.670;2023-08-08T15:24:59;26.30;92.90
34201;DHT22;20469;55.638;37.670;2023-08-08T15:27:29;26.20;97.60
34201;DHT22;20469;55.638;37.670;2023-08-08T15:29:56;26.20;99.90
34201;DHT22;20469;55.638;37.670;2023-08-08T15:32:23;26.20;99.90